createdAt,value
2022-08-22T00:01:17.914Z,59.88
2022-08-22T00:02:49.791Z,51.31
2022-08-22T00:02:58.275Z,42.16
2022-08-22T00:03:06.414Z,55.40
2022-08-22T00:03:08.059Z,56.39
2022-08-22T00:04:00.793Z,59.63
2022-08-22T00:06:44.546Z,59.68
2022-08-22T00:09:33.095Z,59.60
2022-08-22T00:12:16.532Z,59.95
2022-08-22T00:14:52.077Z,60.03
2022-08-22T00:17:37.439Z,59.96
2022-08-22T00:20:14.401Z,60.33
2022-08-22T00:22:52.004Z,60.43
2022-08-22T00:25:38.670Z,60.47
2022-08-22T00:28:15.038Z,60.35
2022-08-22T00:30:55.526Z,60.59
2022-08-22T00:33:35.263Z,60.56
2022-08-22T00:36:20.560Z,60.67
2022-08-22T00:39:00.133Z,60.68
2022-08-22T00:42:32.058Z,60.62
2022-08-22T00:45:32.544Z,60.63
2022-08-22T00:48:49.288Z,61.08
2022-08-22T00:51:55.189Z,60.96
2022-08-22T00:54:40.648Z,61.01
2022-08-22T00:57:41.451Z,60.97
2022-08-22T01:00:18.516Z,61.27
2022-08-22T01:03:43.508Z,61.37
2022-08-22T01:06:28.979Z,61.34
2022-08-22T01:12:11.977Z,61.71
2022-08-22T01:14:49.731Z,61.69
2022-08-22T01:17:55.359Z,61.44
2022-08-22T01:21:38.503Z,61.98
2022-08-22T01:25:25.751Z,61.84
2022-08-22T01:28:35.346Z,62.01
2022-08-22T01:31:52.247Z,61.92
2022-08-22T01:35:06.107Z,61.81
2022-08-22T01:38:17.236Z,61.83
2022-08-22T01:41:45.638Z,62.19
2022-08-22T01:44:38.673Z,62.26
2022-08-22T01:47:15.086Z,62.12
2022-08-22T01:49:49.852Z,62.19
2022-08-22T01:52:38.091Z,62.21
2022-08-22T01:55:15.067Z,62.17
2022-08-22T01:57:55.801Z,61.99
2022-08-22T02:00:34.750Z,62.13
2022-08-22T02:03:23.261Z,62.26
2022-08-22T02:06:00.031Z,62.52
2022-08-22T02:08:42.356Z,62.39
2022-08-22T02:11:14.191Z,62.59
2022-08-22T02:13:58.324Z,62.39
2022-08-22T02:16:38.572Z,62.68
2022-08-22T02:19:27.047Z,62.28
2022-08-22T02:22:01.217Z,62.32
2022-08-22T02:24:47.429Z,62.38
2022-08-22T02:27:31.399Z,62.48
2022-08-22T02:30:08.616Z,62.44
2022-08-22T02:32:55.394Z,62.25
2022-08-22T02:35:36.923Z,62.37
2022-08-22T02:38:20.953Z,62.19
2022-08-22T02:41:05.033Z,62.23
2022-08-22T02:43:45.531Z,62.69
2022-08-22T02:46:29.058Z,62.69
2022-08-22T02:49:09.878Z,62.62
2022-08-22T02:51:51.535Z,62.27
2022-08-22T02:54:28.983Z,62.43
2022-08-22T02:57:03.812Z,62.58
2022-08-22T02:59:38.157Z,62.90
2022-08-22T03:02:36.413Z,62.62
2022-08-22T03:05:23.611Z,62.62
2022-08-22T03:08:03.790Z,62.91
2022-08-22T03:10:41.015Z,63.07
2022-08-22T03:13:14.831Z,63.22
2022-08-22T03:15:50.705Z,62.76
2022-08-22T03:18:33.597Z,63.02
2022-08-22T03:21:34.080Z,63.22
2022-08-22T03:24:13.128Z,63.03
2022-08-22T03:26:58.905Z,63.28
2022-08-22T03:29:35.148Z,63.02
2022-08-22T03:32:15.753Z,63.04
2022-08-22T03:35:00.437Z,62.93
2022-08-22T03:37:40.550Z,63.17
2022-08-22T03:40:31.637Z,63.30
2022-08-22T03:43:40.381Z,63.55
2022-08-22T03:46:46.904Z,63.33
2022-08-22T03:49:59.342Z,63.79
2022-08-22T03:53:12.150Z,63.64
2022-08-22T03:56:26.274Z,63.73
2022-08-22T03:59:49.605Z,63.87
2022-08-22T04:02:58.525Z,64.14
2022-08-22T04:06:11.447Z,64.78
2022-08-22T04:09:38.281Z,64.91
2022-08-22T04:12:28.785Z,65.08
2022-08-22T04:15:36.767Z,64.94
2022-08-22T04:18:47.589Z,65.40
2022-08-22T04:21:53.969Z,65.22
2022-08-22T04:25:03.618Z,65.19
2022-08-22T04:27:40.979Z,65.52
2022-08-22T04:30:19.124Z,65.37
2022-08-22T04:32:55.899Z,65.66
2022-08-22T04:35:34.215Z,65.23
2022-08-22T04:38:13.182Z,65.57
2022-08-22T04:40:50.315Z,65.54
2022-08-22T04:43:27.117Z,65.54
2022-08-22T04:46:08.061Z,65.67
2022-08-22T04:48:42.086Z,65.29
2022-08-22T04:51:26.148Z,65.48
2022-08-22T04:54:20.514Z,65.21
2022-08-22T04:57:12.000Z,65.45
2022-08-22T04:59:40.885Z,65.74
2022-08-22T05:02:13.146Z,65.69
2022-08-22T05:04:46.156Z,65.32
2022-08-22T05:07:21.173Z,65.49
2022-08-22T05:09:54.198Z,65.66
2022-08-22T05:12:29.607Z,65.29
2022-08-22T05:15:06.633Z,65.23
2022-08-22T05:17:40.210Z,65.56
2022-08-22T05:20:16.203Z,65.38
2022-08-22T05:22:51.748Z,65.25
2022-08-22T05:25:26.119Z,65.55
2022-08-22T05:28:06.498Z,65.52
2022-08-22T05:30:36.792Z,65.48
2022-08-22T05:33:27.558Z,65.33
2022-08-22T05:36:03.893Z,65.35
2022-08-22T05:38:40.141Z,65.65
2022-08-22T05:41:13.310Z,65.84
2022-08-22T05:43:45.210Z,65.76
2022-08-22T05:46:22.039Z,65.92
2022-08-22T05:48:59.947Z,66.18
2022-08-22T05:51:48.043Z,65.96
2022-08-22T05:54:22.761Z,65.96
2022-08-22T05:57:15.053Z,65.83
2022-08-22T05:59:47.623Z,65.73
2022-08-22T06:02:22.716Z,65.62
2022-08-22T06:04:56.284Z,65.57
2022-08-22T06:07:32.973Z,65.31
2022-08-22T06:10:18.685Z,65.16
2022-08-22T06:12:56.939Z,65.32
2022-08-22T06:15:47.783Z,65.63
2022-08-22T06:18:22.010Z,65.45
2022-08-22T06:20:56.491Z,65.44
2022-08-22T06:23:30.916Z,65.35
2022-08-22T06:26:02.652Z,65.72
2022-08-22T06:28:55.031Z,65.88
2022-08-22T06:31:30.514Z,65.28
2022-08-22T06:34:08.272Z,65.43
2022-08-22T06:36:39.893Z,65.26
2022-08-22T06:39:18.630Z,65.26
2022-08-22T06:41:53.824Z,65.62
2022-08-22T06:44:27.305Z,65.33
2022-08-22T06:47:00.221Z,65.50
2022-08-22T06:49:31.718Z,65.32
2022-08-22T06:52:06.559Z,64.99
2022-08-22T06:54:40.476Z,64.73
2022-08-22T06:57:31.037Z,64.89
2022-08-22T07:00:07.267Z,65.32
2022-08-22T07:02:42.333Z,65.69
2022-08-22T07:05:18.874Z,65.25
2022-08-22T07:07:47.935Z,65.70
2022-08-22T07:10:19.158Z,65.65
2022-08-22T07:12:54.186Z,65.54
2022-08-22T07:15:34.052Z,65.36
2022-08-22T07:18:08.635Z,65.92
2022-08-22T07:20:42.286Z,65.61
2022-08-22T07:23:14.155Z,65.05
2022-08-22T07:25:54.362Z,65.58
2022-08-22T07:28:51.291Z,65.45
2022-08-22T07:31:43.685Z,65.58
2022-08-22T07:34:37.618Z,65.27
2022-08-22T07:37:12.142Z,66.00
2022-08-22T07:39:51.393Z,65.75
2022-08-22T07:42:31.280Z,65.94
2022-08-22T07:45:10.357Z,66.43
2022-08-22T07:48:04.491Z,66.14
2022-08-22T07:50:37.034Z,65.89
2022-08-22T07:53:15.749Z,66.19
2022-08-22T07:55:49.524Z,65.90
2022-08-22T07:58:20.010Z,65.91
2022-08-22T08:00:51.634Z,65.84
2022-08-22T08:03:25.220Z,65.56
2022-08-22T08:05:55.162Z,65.60
2022-08-22T08:08:28.257Z,65.06
2022-08-22T08:11:00.353Z,65.13
2022-08-22T08:13:36.251Z,65.38
2022-08-22T08:16:11.077Z,65.76
2022-08-22T08:18:40.974Z,65.77
2022-08-22T08:21:31.612Z,65.82
2022-08-22T08:24:02.559Z,65.92
2022-08-22T08:26:35.504Z,65.98
2022-08-22T08:29:04.852Z,65.11
2022-08-22T08:31:43.400Z,64.64
2022-08-22T08:34:19.039Z,63.94
2022-08-22T08:36:54.418Z,64.02
2022-08-22T08:39:34.820Z,63.94
2022-08-22T08:43:11.043Z,63.57
2022-08-22T08:46:11.812Z,63.64
2022-08-22T08:49:16.061Z,63.57
2022-08-22T08:52:24.412Z,63.89
2022-08-22T08:55:21.853Z,64.30
2022-08-22T08:58:11.025Z,63.61
2022-08-22T09:01:08.277Z,63.82
2022-08-22T09:04:15.222Z,63.88
2022-08-22T09:07:27.181Z,63.99
2022-08-22T09:10:29.376Z,64.72
2022-08-22T09:13:44.139Z,65.15
2022-08-22T09:16:53.902Z,65.37
2022-08-22T09:19:49.070Z,65.37
2022-08-22T09:22:51.047Z,65.45
2022-08-22T09:25:36.704Z,65.21
2022-08-22T09:28:20.617Z,65.44
2022-08-22T09:31:21.807Z,65.37
2022-08-22T09:34:10.823Z,65.53
2022-08-22T09:37:04.531Z,65.37
2022-08-22T09:39:39.396Z,65.19
2022-08-22T09:42:19.069Z,65.55
2022-08-22T09:45:20.488Z,64.97
2022-08-22T09:48:06.363Z,65.01
2022-08-22T09:50:52.767Z,64.61
2022-08-22T09:53:53.076Z,64.73
2022-08-22T09:56:29.658Z,64.59
2022-08-22T09:59:07.257Z,64.57
2022-08-22T10:01:48.193Z,64.26
2022-08-22T10:04:47.667Z,64.44
2022-08-22T10:07:55.213Z,64.41
2022-08-22T10:11:11.850Z,64.72
2022-08-22T10:14:04.969Z,64.03
2022-08-22T10:17:08.729Z,63.83
2022-08-22T10:19:42.721Z,63.47
2022-08-22T10:22:30.363Z,63.39
2022-08-22T10:25:35.036Z,63.65
2022-08-22T10:28:33.480Z,63.51
2022-08-22T10:31:28.237Z,63.27
2022-08-22T10:34:07.970Z,62.39
2022-08-22T10:37:05.623Z,62.02
2022-08-22T10:39:45.398Z,62.04
2022-08-22T10:42:28.660Z,61.07
2022-08-22T10:45:36.802Z,60.83
2022-08-22T10:48:37.314Z,60.23
2022-08-22T10:51:20.561Z,60.08
2022-08-22T10:54:29.416Z,59.12
2022-08-22T10:57:15.510Z,59.04
2022-08-22T11:00:01.846Z,59.24
2022-08-22T11:02:42.305Z,59.33
2022-08-22T11:05:43.057Z,58.79
2022-08-22T11:09:12.606Z,58.33
2022-08-22T11:11:49.166Z,58.09
2022-08-22T11:15:05.138Z,57.63
2022-08-22T11:18:16.815Z,57.25
2022-08-22T11:20:59.328Z,57.16
2022-08-22T11:23:46.239Z,56.52
2022-08-22T11:26:38.237Z,56.10
2022-08-22T11:29:38.781Z,55.68
2022-08-22T11:32:18.278Z,54.88
2022-08-22T11:34:57.473Z,54.27
2022-08-22T11:37:56.532Z,54.10
2022-08-22T11:40:35.857Z,54.23
2022-08-22T11:43:32.352Z,53.90
2022-08-22T11:46:23.426Z,53.92
2022-08-22T11:49:18.836Z,54.11
2022-08-22T11:52:23.195Z,53.76
2022-08-22T11:55:17.675Z,51.66
2022-08-22T11:57:50.440Z,51.40
2022-08-22T12:00:33.444Z,51.85
2022-08-22T12:03:27.957Z,52.14
2022-08-22T12:06:07.698Z,52.18
2022-08-22T12:09:21.998Z,51.10
2022-08-22T12:12:17.157Z,50.94
2022-08-22T12:14:56.195Z,50.99
2022-08-22T12:18:17.439Z,50.56
2022-08-22T12:21:46.906Z,50.82
2022-08-22T12:24:44.965Z,51.42
2022-08-22T12:27:55.806Z,50.89
2022-08-22T12:30:37.933Z,50.29
2022-08-22T12:33:42.006Z,50.37
2022-08-22T12:36:39.104Z,50.50
2022-08-22T12:39:31.066Z,50.51
2022-08-22T12:42:32.039Z,50.96
2022-08-22T12:45:34.756Z,51.48
2022-08-22T12:48:21.121Z,51.28
2022-08-22T12:50:57.675Z,50.97
2022-08-22T12:53:54.734Z,50.83
2022-08-22T12:56:38.626Z,49.86
2022-08-22T12:59:27.452Z,49.71
2022-08-22T13:02:00.859Z,49.59
2022-08-22T13:04:34.331Z,49.63
2022-08-22T13:07:22.889Z,49.81
2022-08-22T13:09:58.040Z,49.68
2022-08-22T13:12:32.662Z,49.93
2022-08-22T13:15:10.772Z,50.09
2022-08-22T13:17:39.678Z,50.19
2022-08-22T13:20:21.931Z,50.38
2022-08-22T13:22:51.096Z,50.33
2022-08-22T13:25:29.523Z,50.42
2022-08-22T13:28:02.314Z,50.75
2022-08-22T13:30:37.507Z,51.11
2022-08-22T13:33:11.137Z,51.13
2022-08-22T13:35:52.265Z,50.88
2022-08-22T13:38:26.263Z,51.23
2022-08-22T13:40:59.076Z,51.65
2022-08-22T13:43:34.190Z,51.60
2022-08-22T13:46:11.073Z,51.77
2022-08-22T13:48:51.012Z,52.17
2022-08-22T13:51:29.849Z,52.39
2022-08-22T13:54:20.085Z,52.61
2022-08-22T13:57:03.068Z,52.73
2022-08-22T13:59:50.940Z,52.86
2022-08-22T14:02:43.469Z,53.31
2022-08-22T14:05:21.976Z,53.64
2022-08-22T14:08:02.156Z,53.42
2022-08-22T14:10:35.426Z,53.36
2022-08-22T14:13:38.943Z,53.80
2022-08-22T14:16:15.012Z,53.66
2022-08-22T14:18:50.918Z,53.71
2022-08-22T14:21:40.626Z,53.52
2022-08-22T14:24:20.089Z,53.84
2022-08-22T14:26:59.615Z,53.46
2022-08-22T14:29:46.011Z,53.29
2022-08-22T14:32:41.976Z,53.62
2022-08-22T14:35:23.199Z,53.35
2022-08-22T14:38:27.394Z,53.80
2022-08-22T14:41:05.723Z,54.01
2022-08-22T14:43:51.478Z,53.70
2022-08-22T14:46:30.372Z,53.35
2022-08-22T14:49:30.637Z,52.98
2022-08-22T14:52:11.020Z,52.62
2022-08-22T14:54:48.645Z,52.97
2022-08-22T14:57:20.457Z,52.98
2022-08-22T14:59:53.632Z,53.04
2022-08-22T15:02:31.555Z,53.46
2022-08-22T15:05:14.501Z,53.48
2022-08-22T15:07:43.357Z,53.60
2022-08-22T15:10:25.988Z,53.57
2022-08-22T15:13:02.664Z,53.79
2022-08-22T15:15:49.254Z,53.54
2022-08-22T15:18:37.223Z,53.41
2022-08-22T15:21:10.203Z,52.88
2022-08-22T15:23:46.696Z,53.05
2022-08-22T15:26:26.987Z,53.26
2022-08-22T15:29:05.768Z,53.00
2022-08-22T15:31:35.026Z,53.51
2022-08-22T15:34:13.404Z,53.48
2022-08-22T15:37:24.075Z,53.45
2022-08-22T15:40:08.475Z,53.80
2022-08-22T15:42:45.318Z,53.61
2022-08-22T15:45:29.896Z,53.87
2022-08-22T15:48:02.489Z,54.11
2022-08-22T15:50:37.805Z,54.05
2022-08-22T15:53:24.059Z,54.51
2022-08-22T15:56:29.248Z,54.25
2022-08-22T15:59:53.395Z,54.68
2022-08-22T16:02:36.739Z,54.68
2022-08-22T16:05:26.062Z,55.01
2022-08-22T16:08:11.437Z,54.49
2022-08-22T16:10:45.263Z,54.25
2022-08-22T16:13:42.265Z,54.33
2022-08-22T16:16:56.689Z,54.33
2022-08-22T16:19:27.906Z,54.37
2022-08-22T16:22:14.955Z,54.18
2022-08-22T16:25:10.273Z,53.93
2022-08-22T16:27:55.290Z,54.05
2022-08-22T16:30:36.575Z,54.33
2022-08-22T16:33:07.104Z,54.45
2022-08-22T16:36:39.491Z,54.67
2022-08-22T16:39:31.574Z,54.74
2022-08-22T16:42:35.613Z,55.24
2022-08-22T16:45:17.696Z,54.71
2022-08-22T16:48:02.151Z,55.05
2022-08-22T16:50:40.969Z,54.84
2022-08-22T16:53:33.235Z,55.23
2022-08-22T16:56:21.587Z,55.53
2022-08-22T16:59:38.230Z,55.25
2022-08-22T17:02:46.618Z,55.18
2022-08-22T17:05:39.274Z,55.59
2022-08-22T17:08:38.584Z,55.40
2022-08-22T17:11:24.002Z,55.77
2022-08-22T17:14:10.067Z,55.48
2022-08-22T17:17:09.100Z,55.26
2022-08-22T17:19:54.003Z,55.41
2022-08-22T17:22:32.990Z,55.67
2022-08-22T17:25:21.921Z,55.33
2022-08-22T17:28:07.494Z,55.15
2022-08-22T17:30:47.184Z,55.25
2022-08-22T17:33:42.244Z,55.14
2022-08-22T17:36:27.226Z,55.27
2022-08-22T17:39:10.193Z,55.09
2022-08-22T17:41:51.241Z,55.24
2022-08-22T17:44:30.757Z,55.56
2022-08-22T17:47:07.367Z,55.32
2022-08-22T17:49:56.039Z,55.54
2022-08-22T17:52:37.687Z,55.38
2022-08-22T17:55:18.062Z,54.99
2022-08-22T17:57:54.509Z,55.40
2022-08-22T18:00:32.458Z,55.14
2022-08-22T18:03:09.488Z,55.15
2022-08-22T18:05:51.686Z,54.99
2022-08-22T18:09:12.890Z,55.29
2022-08-22T18:11:28.628Z,55.31
2022-08-22T18:14:05.159Z,55.33
2022-08-22T18:16:44.698Z,55.08
2022-08-22T18:19:39.764Z,55.31
2022-08-22T18:22:14.208Z,55.65
2022-08-22T18:24:52.560Z,55.82
2022-08-22T18:27:34.966Z,55.61
2022-08-22T18:30:16.800Z,55.83
2022-08-22T18:32:57.612Z,56.22
2022-08-22T18:35:33.257Z,56.31
2022-08-22T18:38:19.743Z,56.39
2022-08-22T18:40:55.996Z,56.37
2022-08-22T18:43:37.347Z,56.50
2022-08-22T18:46:31.922Z,56.29
2022-08-22T18:49:15.469Z,56.56
2022-08-22T18:51:45.182Z,56.62
2022-08-22T18:54:37.201Z,57.19
2022-08-22T18:57:30.746Z,56.79
2022-08-22T19:00:12.635Z,57.45
2022-08-22T19:03:25.624Z,57.52
2022-08-22T19:06:32.540Z,57.63
2022-08-22T19:09:43.209Z,57.51
2022-08-22T19:12:32.207Z,57.63
2022-08-22T19:15:27.579Z,57.44
2022-08-22T19:18:36.685Z,57.58
2022-08-22T19:21:40.207Z,57.65
2022-08-22T19:24:14.440Z,58.02
2022-08-22T19:26:48.097Z,57.92
2022-08-22T19:30:00.899Z,58.08
2022-08-22T19:33:01.928Z,58.30
2022-08-22T19:35:44.013Z,58.45
2022-08-22T19:39:10.097Z,58.38
2022-08-22T19:41:43.930Z,58.43
2022-08-22T19:44:33.006Z,58.99
2022-08-22T19:47:11.837Z,59.06
2022-08-22T19:49:44.267Z,59.18
2022-08-22T19:52:27.099Z,59.87
2022-08-22T19:55:13.075Z,59.86
2022-08-22T19:57:50.626Z,59.95
2022-08-22T20:00:23.611Z,60.27
2022-08-22T20:03:03.685Z,60.14
2022-08-22T20:05:56.676Z,60.63
2022-08-22T20:08:51.886Z,60.37
2022-08-22T20:11:39.117Z,60.63
2022-08-22T20:14:30.089Z,60.55
2022-08-22T20:17:13.626Z,60.84
2022-08-22T20:22:44.483Z,60.80
2022-08-22T20:25:42.048Z,60.45
2022-08-22T20:28:35.489Z,60.08
2022-08-22T20:31:12.383Z,60.25
2022-08-22T20:33:46.118Z,59.80
2022-08-22T20:36:28.875Z,59.84
2022-08-22T20:39:02.801Z,59.97
2022-08-22T20:41:36.808Z,59.18
2022-08-22T20:44:16.044Z,59.40
2022-08-22T20:46:55.682Z,58.87
2022-08-22T20:49:29.478Z,58.83
2022-08-22T20:52:02.158Z,59.09
2022-08-22T20:54:34.550Z,58.74
2022-08-22T20:57:14.231Z,58.73
2022-08-22T20:59:53.043Z,58.46
2022-08-22T21:02:27.154Z,58.09
2022-08-22T21:05:01.585Z,58.16
2022-08-22T21:07:33.440Z,58.06
2022-08-22T21:10:32.758Z,58.30
2022-08-22T21:13:09.205Z,58.40
2022-08-22T21:15:42.871Z,57.91
2022-08-22T21:18:13.844Z,57.81
2022-08-22T21:20:42.571Z,57.83
2022-08-22T21:23:15.501Z,57.82
2022-08-22T21:25:56.588Z,58.02
2022-08-22T21:28:36.043Z,57.82
2022-08-22T21:31:14.348Z,57.87
2022-08-22T21:33:45.994Z,57.53
2022-08-22T21:36:18.255Z,57.72
2022-08-22T21:38:54.519Z,57.73
2022-08-22T21:41:29.609Z,57.42
2022-08-22T21:44:17.633Z,57.74
2022-08-22T21:46:47.532Z,57.68
2022-08-22T21:49:24.356Z,57.74
2022-08-22T21:51:53.288Z,57.91
2022-08-22T21:54:41.642Z,57.90
2022-08-22T21:57:35.522Z,57.68
2022-08-22T22:00:09.135Z,57.67
2022-08-22T22:02:43.693Z,57.56
2022-08-22T22:05:17.009Z,57.67
2022-08-22T22:07:48.029Z,57.59
2022-08-22T22:10:19.401Z,57.41
2022-08-22T22:12:51.306Z,57.84
2022-08-22T22:15:23.717Z,57.62
2022-08-22T22:17:54.063Z,57.32
2022-08-22T22:20:26.279Z,57.53
2022-08-22T22:22:55.783Z,57.46
2022-08-22T22:25:39.089Z,57.36
2022-08-22T22:28:16.936Z,57.16
2022-08-22T22:30:50.511Z,57.43
2022-08-22T22:33:22.143Z,57.46
2022-08-22T22:35:52.045Z,57.42
2022-08-22T22:38:24.102Z,57.11
2022-08-22T22:40:53.178Z,57.48
2022-08-22T22:43:21.572Z,57.15
2022-08-22T22:45:49.956Z,56.91
2022-08-22T22:48:24.070Z,57.34
2022-08-22T22:50:54.170Z,56.97
2022-08-22T22:53:38.150Z,57.32
2022-08-22T22:56:09.344Z,56.80
2022-08-22T22:58:38.313Z,57.46
2022-08-22T23:01:10.748Z,56.88
2022-08-22T23:03:40.653Z,56.82
2022-08-22T23:06:13.616Z,56.89
2022-08-22T23:08:42.646Z,56.98
2022-08-22T23:11:12.873Z,56.89
2022-08-22T23:13:43.143Z,57.28
2022-08-22T23:16:15.564Z,57.28
2022-08-22T23:18:45.932Z,56.90
2022-08-22T23:21:17.518Z,57.27
2022-08-22T23:23:46.887Z,57.42
2022-08-22T23:26:16.536Z,57.33
2022-08-22T23:28:45.027Z,57.72
2022-08-22T23:31:29.679Z,57.77
2022-08-22T23:34:04.933Z,57.59
2022-08-22T23:36:33.702Z,57.99
2022-08-22T23:39:02.216Z,58.01
2022-08-22T23:41:30.583Z,58.30
2022-08-22T23:43:59.083Z,58.74
2022-08-22T23:46:28.663Z,59.28
2022-08-22T23:49:01.341Z,59.46
2022-08-22T23:51:29.961Z,59.80
2022-08-22T23:54:00.010Z,59.78
2022-08-22T23:56:32.545Z,60.19
2022-08-22T23:59:05.825Z,60.05
